Time;durP1;ratioP1;P1;durP2;ratioP2;P2;SDS_P1;SDS_P2;PMS_P1;PMS_P2;Temp;Humidity;BMP_temperature;BMP_pressure;BME280_temperature;BME280_humidity;BME280_pressure;Samples;Min_cycle;Max_cycle;Signal;HPM_P1;HPM_P2
2023/01/25 00:01:20;;;;;;;7.93;4.87;;;;;;;5.42;56.37;101038.56;5092364;28;20024;-80
2023/01/25 00:03:45;;;;;;;9.45;5.25;;;;;;;4.95;56.46;100975.56;5092111;28;20024;-80
2023/01/25 00:06:11;;;;;;;9.98;5.45;;;;;;;4.80;56.45;100922.53;5090582;28;20056;-80
2023/01/25 00:08:37;;;;;;;7.10;4.53;;;;;;;4.32;56.50;100843.91;5090649;28;20028;-80
2023/01/25 00:11:03;;;;;;;7.47;5.43;;;;;;;4.94;56.50;100951.19;5090641;28;20031;-80
2023/01/25 00:13:28;;;;;;;8.13;4.85;;;;;;;4.46;56.28;100890.88;5091883;28;20105;-80
2023/01/25 00:16:00;;;;;;;6.00;4.30;;;;;;;5.37;56.47;101021.50;5091890;28;20030;-80
2023/01/25 00:18:26;;;;;;;7.97;6.00;;;;;;;5.13;56.25;100997.00;5091171;28;20020;-80
2023/01/25 00:20:51;;;;;;;6.30;4.70;;;;;;;5.33;56.69;101041.84;5091621;28;20040;-80
2023/01/25 00:23:17;;;;;;;5.75;4.88;;;;;;;5.31;56.81;101037.66;5090640;28;20378;-80
2023/01/25 00:25:42;;;;;;;6.95;5.38;;;;;;;5.35;57.13;101034.72;5091680;28;20019;-80
2023/01/25 00:28:07;;;;;;;8.80;5.72;;;;;;;4.62;56.97;100924.66;5089860;28;20027;-80
2023/01/25 00:30:33;;;;;;;6.68;5.13;;;;;;;5.35;56.89;101052.19;5090460;28;20484;-79
2023/01/25 00:33:11;;;;;;;6.97;5.10;;;;;;;5.25;56.86;101022.38;5091664;28;20017;-80
2023/01/25 00:35:37;;;;;;;8.93;5.33;;;;;;;4.63;56.89;100922.88;5091656;28;20051;-80
2023/01/25 00:38:12;;;;;;;7.10;5.10;;;;;;;5.18;56.63;101016.69;5091583;28;20016;-80
2023/01/25 00:40:38;;;;;;;10.87;5.40;;;;;;;4.78;56.74;100955.81;5090278;28;20024;-80
2023/01/25 00:43:03;;;;;;;6.03;4.20;;;;;;;4.87;56.80;100976.13;5091546;28;20053;-80
2023/01/25 00:45:29;;;;;;;6.43;4.97;;;;;;;4.69;56.84;100938.97;5091364;28;20126;-79
2023/01/25 00:47:55;;;;;;;7.43;5.20;;;;;;;4.93;56.92;101012.31;5091421;28;20145;-80
2023/01/25 00:50:20;;;;;;;7.07;4.73;;;;;;;4.53;56.68;100901.75;5090225;28;20027;-80
2023/01/25 00:52:45;;;;;;;5.97;4.43;;;;;;;4.53;56.65;100899.13;5091220;28;20492;-79
2023/01/25 00:55:11;;;;;;;7.07;5.00;;;;;;;5.22;56.82;101020.81;5091658;28;20054;-79
2023/01/25 00:57:36;;;;;;;7.80;4.72;;;;;;;4.60;56.46;100912.63;5091491;28;20024;-81
2023/01/25 01:00:02;;;;;;;6.90;4.50;;;;;;;5.38;56.63;101033.66;5091289;28;20028;-79
2023/01/25 01:02:29;;;;;;;6.50;4.50;;;;;;;4.93;56.65;100970.44;5091112;28;20089;-79
2023/01/25 01:04:55;;;;;;;9.23;5.60;;;;;;;5.28;56.66;101035.25;5092968;28;20020;-80
2023/01/25 01:07:21;;;;;;;9.30;6.10;;;;;;;4.72;56.61;100945.78;5091878;28;20399;-80
2023/01/25 01:09:46;;;;;;;7.63;5.72;;;;;;;4.57;56.87;100916.28;5092457;28;20020;-79
2023/01/25 01:12:11;;;;;;;6.65;5.20;;;;;;;4.92;56.54;100981.88;5094127;28;20107;-80
2023/01/25 01:14:37;;;;;;;9.73;5.60;;;;;;;4.82;56.93;100969.53;5094553;28;20024;-80
2023/01/25 01:17:02;;;;;;;6.28;5.10;;;;;;;4.64;56.74;100941.06;5097899;28;20035;-80
2023/01/25 01:19:28;;;;;;;9.50;5.32;;;;;;;5.29;56.80;101037.75;5100902;28;20052;-80
2023/01/25 01:21:53;;;;;;;6.95;4.70;;;;;;;4.51;56.76;100923.72;5096245;28;20016;-80
2023/01/25 01:24:19;;;;;;;7.70;4.60;;;;;;;5.08;56.87;100999.94;5093917;28;20411;-80
2023/01/25 01:26:44;;;;;;;5.63;4.10;;;;;;;4.25;56.95;100862.72;5094781;28;20024;-80
2023/01/25 01:29:09;;;;;;;6.22;4.53;;;;;;;4.79;57.08;100953.09;5093725;28;20024;-80
2023/01/25 01:31:35;;;;;;;5.40;4.28;;;;;;;4.90;57.03;100991.59;5094212;28;20056;-80
2023/01/25 01:34:00;;;;;;;6.35;4.40;;;;;;;4.81;56.93;100981.78;5089612;28;20504;-79
2023/01/25 01:36:27;;;;;;;6.15;4.70;;;;;;;5.19;57.29;101028.84;5089487;28;20020;-80
2023/01/25 01:38:53;;;;;;;4.90;3.88;;;;;;;3.98;57.08;100821.03;5093405;28;20028;-80
2023/01/25 01:41:19;;;;;;;7.28;4.68;;;;;;;4.49;57.23;100896.84;5093489;28;20084;-80
2023/01/25 01:43:44;;;;;;;6.25;3.90;;;;;;;3.77;57.15;100777.13;5093441;28;20481;-80
2023/01/25 01:46:16;;;;;;;5.13;3.53;;;;;;;4.64;57.34;100927.16;5094696;28;20020;-80
2023/01/25 01:48:55;;;;;;;4.65;3.80;;;;;;;5.23;57.05;101025.09;5094753;28;20027;-80
2023/01/25 01:51:20;;;;;;;6.33;4.20;;;;;;;5.25;57.29;101019.75;5094939;28;20088;-80
2023/01/25 01:53:51;;;;;;;6.65;4.13;;;;;;;5.22;57.36;101020.81;5094473;28;20099;-80
2023/01/25 01:56:27;;;;;;;4.80;3.83;;;;;;;4.82;57.00;100956.44;5094437;28;20024;-80
2023/01/25 01:58:55;;;;;;;3.95;3.47;;;;;;;5.06;57.21;100992.22;5094257;28;20028;-80
2023/01/25 02:01:20;;;;;;;6.18;4.07;;;;;;;4.52;57.13;100921.00;5094491;28;20386;-79
2023/01/25 02:03:47;;;;;;;5.32;3.88;;;;;;;4.67;57.02;100953.09;5092884;28;20024;-80
2023/01/25 02:06:19;;;;;;;5.07;3.40;;;;;;;5.19;56.73;101022.75;5094030;28;20412;-80
2023/01/25 02:08:44;;;;;;;4.35;3.75;;;;;;;4.70;56.97;100950.28;5094041;28;20496;-80
2023/01/25 02:11:11;;;;;;;5.60;3.58;;;;;;;4.90;56.89;100967.22;5094222;28;20059;-80
2023/01/25 02:13:37;;;;;;;5.22;3.80;;;;;;;4.97;56.75;100978.94;5094359;28;20160;-80
2023/01/25 02:16:03;;;;;;;7.03;3.80;;;;;;;5.23;56.70;101014.63;5094033;28;20496;-80
2023/01/25 02:18:30;;;;;;;4.93;4.27;;;;;;;4.50;56.55;100899.34;5094028;28;20024;-79
2023/01/25 02:20:57;;;;;;;5.10;3.80;;;;;;;4.13;56.53;100830.44;5093614;28;20075;-80
2023/01/25 02:23:46;;;;;;;5.93;3.77;;;;;;;5.28;56.08;101020.38;5092564;28;20429;-80
2023/01/25 02:26:12;;;;;;;4.80;3.57;;;;;;;5.25;56.51;101023.19;5093779;28;20503;-80
2023/01/25 02:28:47;;;;;;;5.07;3.80;;;;;;;5.29;56.05;101024.66;5093796;28;20028;-80
2023/01/25 02:31:12;;;;;;;6.17;3.57;;;;;;;4.89;55.61;100955.91;5092671;28;20024;-80
2023/01/25 02:33:37;;;;;;;4.80;3.42;;;;;;;4.83;55.97;100963.34;5093920;28;20028;-80
2023/01/25 02:36:06;;;;;;;4.90;3.50;;;;;;;5.18;55.63;101010.63;5093894;28;20028;-79
2023/01/25 02:38:34;;;;;;;5.03;3.80;;;;;;;4.56;55.60;100913.78;5092794;28;20035;-80
2023/01/25 02:41:07;;;;;;;6.03;3.63;;;;;;;5.09;55.66;101030.44;5093667;28;20469;-80
2023/01/25 02:43:34;;;;;;;5.67;4.00;;;;;;;4.63;56.05;100955.09;5093788;28;20074;-80
2023/01/25 02:46:09;;;;;;;6.13;3.97;;;;;;;5.07;55.94;101008.75;5094016;28;20089;-80
2023/01/25 02:48:35;;;;;;;6.00;4.13;;;;;;;4.57;55.94;100936.38;5093772;28;20442;-81
2023/01/25 02:51:01;;;;;;;6.30;4.65;;;;;;;4.31;55.80;100907.59;5093222;28;20027;-80
2023/01/25 02:53:26;;;;;;;7.17;5.03;;;;;;;4.47;55.57;100923.09;5093223;28;20107;-80
2023/01/25 02:55:51;;;;;;;7.75;5.22;;;;;;;4.42;55.62;100933.84;5092529;28;20047;-80
2023/01/25 02:58:17;;;;;;;7.90;5.10;;;;;;;4.90;55.68;100988.97;5093993;28;20512;-80
2023/01/25 03:00:42;;;;;;;6.07;4.40;;;;;;;4.76;55.55;100958.53;5093969;28;20032;-80
2023/01/25 03:03:08;;;;;;;7.03;4.88;;;;;;;4.47;55.35;100913.47;5091700;28;20012;-80
2023/01/25 03:05:33;;;;;;;6.93;4.70;;;;;;;5.00;55.44;101003.09;5093166;28;20028;-80
2023/01/25 03:07:58;;;;;;;5.93;4.67;;;;;;;4.18;55.51;100867.53;5093305;28;20020;-80
2023/01/25 03:10:24;;;;;;;5.33;4.27;;;;;;;4.60;55.69;100946.63;5093310;28;20540;-80
2023/01/25 03:12:49;;;;;;;6.13;4.70;;;;;;;4.21;55.53;100879.56;5092961;28;20028;-80
2023/01/25 03:15:15;;;;;;;8.93;5.37;;;;;;;4.11;55.67;100885.41;5091776;28;20106;-80
2023/01/25 03:17:40;;;;;;;7.27;5.20;;;;;;;4.40;55.56;100904.34;5092801;28;20016;-80
2023/01/25 03:20:06;;;;;;;7.25;5.75;;;;;;;4.64;55.49;100935.00;5092694;28;20072;-80
2023/01/25 03:22:31;;;;;;;7.17;5.27;;;;;;;4.47;55.69;100960.53;5092664;28;20039;-80
2023/01/25 03:24:57;;;;;;;7.80;6.13;;;;;;;5.01;55.44;100999.53;5092716;28;20505;-80
2023/01/25 03:27:22;;;;;;;9.07;5.87;;;;;;;4.61;55.56;100956.97;5092766;28;20028;-80
2023/01/25 03:29:48;;;;;;;10.00;6.97;;;;;;;4.65;55.73;100945.38;5092610;28;20035;-80
2023/01/25 03:32:13;;;;;;;9.53;5.43;;;;;;;4.53;55.56;100934.91;5098379;28;20020;-80
2023/01/25 03:34:38;;;;;;;7.13;5.77;;;;;;;4.60;55.76;100939.63;5103084;28;20051;-80
2023/01/25 03:37:04;;;;;;;7.68;5.65;;;;;;;5.07;55.71;101008.75;5103561;28;20028;-80
2023/01/25 03:39:29;;;;;;;9.98;6.05;;;;;;;4.39;55.52;100910.50;5103287;28;20020;-80
2023/01/25 03:41:54;;;;;;;9.80;6.33;;;;;;;4.09;55.61;100847.25;5102867;28;20035;-80
2023/01/25 03:44:20;;;;;;;9.37;6.83;;;;;;;3.09;55.50;100693.81;5103541;28;20031;-80
2023/01/25 03:46:45;;;;;;;11.80;7.03;;;;;;;4.55;55.82;100935.66;5099428;28;20397;-79
2023/01/25 03:49:11;;;;;;;10.00;6.13;;;;;;;5.03;55.65;101007.28;5092400;28;20034;-80
2023/01/25 03:51:37;;;;;;;10.67;6.50;;;;;;;4.71;55.86;100962.41;5092166;28;20028;-80
2023/01/25 03:54:03;;;;;;;10.73;6.27;;;;;;;4.47;55.71;100946.63;5092154;28;20036;-80
2023/01/25 03:56:28;;;;;;;11.03;6.67;;;;;;;4.47;55.82;100923.09;5092430;28;20020;-80
2023/01/25 03:58:53;;;;;;;12.10;6.93;;;;;;;4.78;55.39;100969.75;5092270;28;20554;-80
2023/01/25 04:01:19;;;;;;;12.90;7.43;;;;;;;4.64;55.71;100954.16;5090179;28;20052;-80
2023/01/25 04:03:44;;;;;;;10.87;7.63;;;;;;;4.01;55.56;100847.78;5092339;28;20425;-80
2023/01/25 04:06:10;;;;;;;10.43;7.43;;;;;;;4.52;55.65;100951.53;5092031;28;20020;-80
2023/01/25 04:08:36;;;;;;;11.13;7.20;;;;;;;4.40;56.14;100938.34;5092234;28;20023;-80
2023/01/25 04:11:07;;;;;;;13.10;8.53;;;;;;;4.84;55.68;101004.28;5090693;28;20028;-80
2023/01/25 04:13:36;;;;;;;9.43;6.18;;;;;;;4.12;55.68;100889.69;5090528;28;20028;-80
2023/01/25 04:16:06;;;;;;;12.90;7.70;;;;;;;4.41;55.71;100936.56;5090731;28;20020;-80
2023/01/25 04:18:31;;;;;;;9.13;6.40;;;;;;;3.99;55.85;100870.56;5091812;28;20562;-80
2023/01/25 04:20:57;;;;;;;11.27;6.43;;;;;;;4.59;55.74;100974.56;5091673;28;20044;-80
2023/01/25 04:23:24;;;;;;;11.03;7.47;;;;;;;3.93;56.00;100870.97;5090582;28;20028;-80
2023/01/25 04:26:03;;;;;;;9.83;6.83;;;;;;;4.53;55.67;100964.50;5091750;28;20481;-80
2023/01/25 04:28:30;;;;;;;9.93;6.60;;;;;;;4.58;55.71;100961.59;5091730;28;20024;-79
2023/01/25 04:30:56;;;;;;;9.40;7.20;;;;;;;4.12;55.83;100886.25;5091617;28;20043;-80
2023/01/25 04:33:22;;;;;;;11.30;7.77;;;;;;;4.59;55.93;100965.88;5092055;28;20034;-80
2023/01/25 04:35:47;;;;;;;11.13;6.68;;;;;;;4.19;56.02;100918.03;5091318;28;20024;-80
2023/01/25 04:38:13;;;;;;;10.33;6.70;;;;;;;4.04;55.60;100893.78;5092395;28;20035;-80
2023/01/25 04:40:38;;;;;;;11.90;7.20;;;;;;;4.14;55.71;100916.56;5091855;28;20027;-80
2023/01/25 04:43:07;;;;;;;9.37;7.03;;;;;;;4.86;55.54;101015.47;5090965;28;20077;-80
2023/01/25 04:45:35;;;;;;;11.80;7.73;;;;;;;4.24;55.58;100939.47;5091759;28;20031;-80
2023/01/25 04:48:08;;;;;;;12.67;8.20;;;;;;;4.83;55.67;101028.75;5090565;28;20480;-80
2023/01/25 04:50:35;;;;;;;13.13;8.43;;;;;;;4.47;55.48;100983.25;5090982;28;20416;-80
2023/01/25 04:53:00;;;;;;;10.93;7.17;;;;;;;4.56;55.77;101000.09;5092075;28;20475;-80
2023/01/25 04:55:25;;;;;;;11.50;7.73;;;;;;;4.72;55.70;101008.56;5092251;28;20031;-80
2023/01/25 04:57:51;;;;;;;11.23;7.73;;;;;;;4.67;55.74;101008.88;5092589;28;20035;-80
2023/01/25 05:00:17;;;;;;;12.73;8.47;;;;;;;3.76;55.81;100852.97;5092140;28;20020;-80
2023/01/25 05:02:43;;;;;;;11.63;7.77;;;;;;;4.73;55.89;101015.47;5091700;28;20024;-80
2023/01/25 05:05:09;;;;;;;10.90;7.27;;;;;;;4.54;55.62;100984.50;5091416;28;20078;-80
2023/01/25 05:07:34;;;;;;;12.67;7.90;;;;;;;4.83;55.60;101034.84;5091456;28;20451;-80
2023/01/25 05:09:59;;;;;;;12.80;8.47;;;;;;;4.27;55.44;100947.94;5091512;28;20069;-80
2023/01/25 05:12:25;;;;;;;11.13;7.87;;;;;;;4.11;55.64;100942.91;5091825;28;20059;-80
2023/01/25 05:14:50;;;;;;;13.27;8.80;;;;;;;4.50;55.90;100996.13;5094153;28;20069;-80
2023/01/25 05:17:16;;;;;;;11.00;7.83;;;;;;;4.59;55.77;101018.19;5095663;28;20016;-80
2023/01/25 05:19:41;;;;;;;13.00;8.40;;;;;;;4.74;56.15;101038.91;5095187;28;20406;-80
2023/01/25 05:22:15;;;;;;;15.10;9.25;;;;;;;4.07;56.03;100924.94;5095311;28;20016;-80
2023/01/25 05:24:40;;;;;;;14.73;9.13;;;;;;;4.31;56.33;100974.72;5095105;28;20020;-80
2023/01/25 05:27:07;;;;;;;11.50;8.40;;;;;;;4.53;56.24;101029.06;5095196;28;20153;-80
2023/01/25 05:29:36;;;;;;;12.63;8.97;;;;;;;4.61;55.94;101000.63;5093784;28;20027;-80
2023/01/25 05:32:08;;;;;;;9.90;8.37;;;;;;;4.67;55.82;101026.34;5095427;28;20024;-80
2023/01/25 05:34:36;;;;;;;;;;;;;;;4.60;55.91;101035.56;5096172;28;20093;-80
2023/01/25 05:37:03;;;;;;;13.47;8.70;;;;;;;4.72;56.51;101039.97;5094311;28;19915;-80
2023/01/25 05:39:29;;;;;;;13.50;10.17;;;;;;;4.79;56.36;101041.22;5095380;28;20098;-80
2023/01/25 05:41:54;;;;;;;13.23;8.90;;;;;;;3.86;56.07;100910.69;5095466;28;20530;-79
2023/01/25 05:44:20;;;;;;;11.73;8.10;;;;;;;3.89;55.97;100913.09;5095266;28;20497;-79
2023/01/25 05:46:46;;;;;;;11.70;8.07;;;;;;;4.70;56.26;101042.69;5096032;28;20561;-80
2023/01/25 05:49:11;;;;;;;11.70;8.57;;;;;;;4.33;56.04;100983.31;5096624;28;20454;-80
2023/01/25 05:51:37;;;;;;;10.77;7.90;;;;;;;4.45;56.09;101006.00;5096519;28;20489;-80
2023/01/25 05:54:03;;;;;;;12.73;8.03;;;;;;;3.04;56.09;100771.56;5095496;28;20032;-80
2023/01/25 05:56:29;;;;;;;10.60;8.47;;;;;;;4.73;55.85;101045.09;5096841;28;20046;-80
2023/01/25 05:58:56;;;;;;;12.30;7.97;;;;;;;4.70;56.07;101042.69;5097062;28;20020;-80
2023/01/25 06:01:22;;;;;;;16.77;9.53;;;;;;;3.72;56.17;100883.69;5096453;28;20481;-80
2023/01/25 06:03:48;;;;;;;17.67;9.93;;;;;;;4.67;55.72;101036.81;5094694;28;20069;-80
2023/01/25 06:06:14;;;;;;;15.47;9.17;;;;;;;4.27;55.66;100965.41;5095057;28;21053;-80
2023/01/25 06:08:39;;;;;;;12.70;8.17;;;;;;;4.39;56.08;100988.13;5096221;28;20023;-80
2023/01/25 06:11:23;;;;;;;14.37;9.10;;;;;;;4.72;55.90;101038.19;5095976;28;20042;-79
2023/01/25 06:13:49;;;;;;;14.43;10.20;;;;;;;4.21;55.96;100942.31;5095937;28;20036;-80
2023/01/25 06:16:16;;;;;;;10.97;7.53;;;;;;;4.54;55.87;100994.13;5093605;28;20473;-80
2023/01/25 06:18:41;;;;;;;10.93;8.03;;;;;;;3.61;55.85;100841.75;5094122;28;20032;-80
2023/01/25 06:21:07;;;;;;;13.25;7.25;;;;;;;4.89;55.81;101037.03;5094103;28;20050;-80
2023/01/25 06:23:32;;;;;;;10.53;7.63;;;;;;;4.20;55.54;100922.31;5095240;28;20020;-79
2023/01/25 06:26:07;;;;;;;12.67;8.40;;;;;;;4.93;55.59;101040.28;5093142;28;20048;-80
2023/01/25 06:28:34;;;;;;;12.00;8.33;;;;;;;4.60;55.48;101007.63;5093621;28;20093;-80
2023/01/25 06:31:08;;;;;;;10.97;8.00;;;;;;;5.03;55.24;101049.16;5093467;28;20032;-79
2023/01/25 06:33:35;;;;;;;11.13;7.87;;;;;;;4.97;55.03;101044.34;5093264;28;20040;-80
2023/01/25 06:36:20;;;;;;;13.55;8.65;;;;;;;4.79;55.28;101015.06;5094859;28;20074;-80
2023/01/25 06:38:50;;;;;;;10.40;7.60;;;;;;;4.57;55.04;100989.53;5097798;28;20039;-78
2023/01/25 06:41:16;;;;;;;13.50;8.80;;;;;;;4.04;55.04;100944.25;5108250;28;20028;-80
2023/01/25 06:43:42;;;;;;;14.23;9.73;;;;;;;4.59;55.24;100992.88;5095712;28;20547;-80
2023/01/25 06:46:08;;;;;;;10.80;7.80;;;;;;;4.88;55.36;101055.47;5086377;28;20037;-80
2023/01/25 06:48:34;;;;;;;10.20;7.33;;;;;;;4.66;55.14;101009.00;5090813;28;20118;-80
2023/01/25 06:51:06;;;;;;;10.00;7.83;;;;;;;4.87;55.09;101049.38;5089529;28;20052;-79
2023/01/25 06:53:35;;;;;;;11.18;6.82;;;;;;;4.91;55.31;101040.38;5093036;28;20028;-81
2023/01/25 06:56:08;;;;;;;11.60;7.67;;;;;;;4.90;55.05;101048.34;5087172;28;20039;-78
2023/01/25 06:58:33;;;;;;;13.87;9.90;;;;;;;3.83;54.92;100883.81;5092573;28;20024;-78
2023/01/25 07:01:18;;;;;;;13.55;8.27;;;;;;;4.91;55.06;101050.84;5093527;28;20036;-78
2023/01/25 07:03:47;;;;;;;10.80;6.73;;;;;;;4.83;55.03;101052.31;5099237;28;20016;-78
2023/01/25 07:06:13;;;;;;;12.33;7.53;;;;;;;4.39;55.30;100972.44;5092805;28;20024;-80
2023/01/25 07:08:38;;;;;;;10.40;7.63;;;;;;;4.47;55.26;100993.69;5092870;28;20411;-78
2023/01/25 07:11:08;;;;;;;15.83;10.63;;;;;;;4.41;55.12;100981.00;5091024;28;20591;-78
2023/01/25 07:13:33;;;;;;;8.23;6.30;;;;;;;4.50;54.69;100985.66;5090526;28;20093;-78
2023/01/25 07:16:03;;;;;;;7.60;5.73;;;;;;;4.84;54.98;101054.84;5098170;28;20081;-79
2023/01/25 07:18:29;;;;;;;9.57;7.03;;;;;;;4.50;54.83;101009.19;5073794;28;20025;-79
2023/01/25 07:21:01;;;;;;;8.33;5.93;;;;;;;4.18;54.45;100955.56;5099160;28;20432;-78
2023/01/25 07:23:27;;;;;;;8.18;5.70;;;;;;;4.42;54.24;101003.59;5092301;28;20023;-79
2023/01/25 07:25:52;;;;;;;7.00;5.90;;;;;;;3.65;54.29;100851.06;5093919;28;20481;-79
2023/01/25 07:28:18;;;;;;;9.60;6.80;;;;;;;4.56;54.65;101015.78;5093387;28;20028;-79
2023/01/25 07:30:43;;;;;;;7.90;5.80;;;;;;;4.55;54.24;101006.25;5087281;28;20024;-78
2023/01/25 07:33:10;;;;;;;8.70;5.77;;;;;;;4.89;54.56;101046.66;5091095;28;20028;-78
2023/01/25 07:35:35;;;;;;;8.50;6.50;;;;;;;4.97;54.09;101054.81;5092504;28;20412;-79
2023/01/25 07:38:01;;;;;;;9.70;6.80;;;;;;;5.06;53.93;101073.34;5091579;28;20035;-79
2023/01/25 07:40:26;;;;;;;8.43;4.97;;;;;;;5.02;53.91;101064.03;5088141;28;20097;-79
2023/01/25 07:42:52;;;;;;;11.63;6.43;;;;;;;3.92;53.57;100902.44;5087319;28;20027;-79
2023/01/25 07:45:17;;;;;;;8.03;4.73;;;;;;;4.26;53.70;100945.44;5087418;28;20046;-79
2023/01/25 07:47:43;;;;;;;7.47;4.63;;;;;;;4.97;53.60;101075.75;5090971;28;20032;-78
2023/01/25 07:50:09;;;;;;;10.93;6.97;;;;;;;4.71;53.67;101015.56;5090343;28;20125;-79
2023/01/25 07:52:35;;;;;;;9.33;6.60;;;;;;;4.49;53.27;100991.81;5089527;28;20055;-79
2023/01/25 07:55:00;;;;;;;8.63;6.20;;;;;;;4.87;53.43;101038.09;5087947;28;20064;-78
2023/01/25 07:57:27;;;;;;;8.40;6.77;;;;;;;4.78;53.25;101043.00;5085219;28;20031;-79
2023/01/25 07:59:52;;;;;;;15.03;8.27;;;;;;;4.62;52.96;101013.59;5089833;28;20043;-78
2023/01/25 08:02:17;;;;;;;12.43;9.00;;;;;;;4.86;52.92;101062.56;5092784;28;20028;-79
2023/01/25 08:04:44;;;;;;;10.90;7.20;;;;;;;4.60;52.97;101012.03;5092325;28;20412;-79
2023/01/25 08:07:10;;;;;;;9.77;5.97;;;;;;;4.92;53.11;101067.41;5097946;28;20082;-79
2023/01/25 08:09:35;;;;;;;6.43;5.20;;;;;;;4.29;52.66;100981.84;5084287;28;20020;-79
2023/01/25 08:12:00;;;;;;;6.23;4.60;;;;;;;4.90;52.64;101080.59;5093884;28;20467;-79
2023/01/25 08:14:26;;;;;;;7.83;4.77;;;;;;;4.71;52.92;101059.22;5095064;28;20030;-79
2023/01/25 08:16:51;;;;;;;10.47;5.83;;;;;;;4.78;52.43;101086.66;5094505;28;20030;-79
2023/01/25 08:19:18;;;;;;;9.88;5.55;;;;;;;4.02;52.36;100950.53;5091650;28;20062;-79
2023/01/25 08:21:44;;;;;;;8.00;6.37;;;;;;;4.02;52.57;100937.47;5091531;28;20090;-80
2023/01/25 08:24:10;;;;;;;9.33;6.47;;;;;;;4.62;52.66;101046.75;5091185;28;20023;-79
2023/01/25 08:26:36;;;;;;;7.87;6.33;;;;;;;4.35;52.98;101013.63;5090818;28;20070;-80
2023/01/25 08:29:02;;;;;;;15.20;7.30;;;;;;;4.63;52.75;101037.97;5090382;28;20055;-81
2023/01/25 08:31:30;;;;;;;16.20;6.93;;;;;;;4.90;52.84;101064.88;5088646;28;20028;-79
2023/01/25 08:33:56;;;;;;;14.80;8.30;;;;;;;4.93;52.44;101064.66;5101867;28;20028;-80
2023/01/25 08:36:26;;;;;;;13.87;9.90;;;;;;;3.93;52.47;100904.09;5091850;28;20480;-80
2023/01/25 08:38:55;;;;;;;17.87;10.83;;;;;;;4.76;52.84;101064.97;5091034;28;20047;-80
2023/01/25 08:41:20;;;;;;;9.50;6.93;;;;;;;4.90;52.76;101062.25;5091613;28;20032;-80
2023/01/25 08:43:46;;;;;;;9.73;5.50;;;;;;;4.65;52.72;101030.84;5089895;28;20416;-80
2023/01/25 08:46:13;;;;;;;10.43;6.07;;;;;;;3.97;52.66;100906.41;5090900;28;20145;-80
2023/01/25 08:48:39;;;;;;;8.30;6.63;;;;;;;4.95;52.37;101057.56;5089958;28;20079;-80
2023/01/25 08:51:07;;;;;;;9.10;6.40;;;;;;;5.02;52.33;101066.66;5091359;28;20500;-79
2023/01/25 08:53:33;;;;;;;13.03;9.10;;;;;;;5.08;52.25;101062.78;5089853;28;20060;-80
2023/01/25 08:56:10;;;;;;;9.23;6.87;;;;;;;4.61;52.15;100988.38;5090502;28;20492;-79
2023/01/25 08:58:37;;;;;;;7.07;5.93;;;;;;;4.89;52.05;101016.09;5090358;28;20024;-79
2023/01/25 09:01:09;;;;;;;8.30;6.13;;;;;;;5.26;51.90;101071.19;5090324;28;20032;-79
2023/01/25 09:03:41;;;;;;;8.38;5.85;;;;;;;5.08;52.31;101028.75;5089201;28;20489;-79
2023/01/25 09:06:07;;;;;;;9.80;6.45;;;;;;;5.26;52.07;101047.59;5088720;28;20073;-80
2023/01/25 09:08:32;;;;;;;10.50;6.53;;;;;;;4.46;52.41;100924.88;5091265;28;20059;-80
2023/01/25 09:11:03;;;;;;;8.40;5.57;;;;;;;4.63;51.90;100925.50;5090927;28;20449;-79
2023/01/25 09:13:28;;;;;;;11.25;6.05;;;;;;;5.02;51.96;100982.91;5089250;28;20028;-79
2023/01/25 09:16:05;;;;;;;9.70;6.45;;;;;;;5.14;51.84;101001.31;5089437;28;20085;-79
2023/01/25 09:18:32;;;;;;;6.30;4.93;;;;;;;4.98;52.05;100978.81;5089331;28;20027;-79
2023/01/25 09:20:57;;;;;;;7.78;5.10;;;;;;;5.05;52.26;100993.16;5090725;28;20043;-79
2023/01/25 09:23:23;;;;;;;9.10;5.55;;;;;;;4.78;51.91;100932.28;5089643;28;20412;-79
2023/01/25 09:25:59;;;;;;;7.15;4.57;;;;;;;5.44;51.98;101027.97;5089915;28;20043;-79
2023/01/25 09:28:26;;;;;;;8.52;4.75;;;;;;;4.72;51.95;100915.22;5089657;28;20024;-79
2023/01/25 09:30:59;;;;;;;7.95;5.43;;;;;;;5.26;52.04;100997.84;5090473;28;20032;-79
2023/01/25 09:33:33;;;;;;;6.68;4.75;;;;;;;5.51;51.97;101017.91;5090814;28;20024;-80
2023/01/25 09:36:00;;;;;;;6.87;5.50;;;;;;;5.45;51.52;101006.06;5090689;28;20468;-79
2023/01/25 09:38:26;;;;;;;8.10;5.63;;;;;;;5.46;51.86;101001.69;5090274;28;20028;-79
2023/01/25 09:41:18;;;;;;;8.90;5.38;;;;;;;5.11;51.12;100948.22;5091914;28;20115;-79
2023/01/25 09:43:58;;;;;;;10.52;6.43;;;;;;;4.70;51.22;100926.72;5087457;28;20094;-79
2023/01/25 09:46:39;;;;;;;10.63;6.85;;;;;;;5.39;51.76;100986.41;5090517;28;20413;-79
2023/01/25 09:49:32;;;;;;;10.43;5.80;;;;;;;5.40;51.30;100990.69;5090837;28;20526;-79
2023/01/25 09:52:07;;;;;;;7.65;5.20;;;;;;;5.40;50.48;100989.84;5089658;28;20119;-79
2023/01/25 09:54:39;;;;;;;8.70;6.15;;;;;;;5.45;50.87;100987.75;5089708;28;20047;-79
2023/01/25 09:57:21;;;;;;;9.25;6.78;;;;;;;5.41;51.07;100996.75;5090946;28;20081;-79
2023/01/25 09:59:49;;;;;;;8.50;6.05;;;;;;;5.36;51.12;100985.78;5091048;28;20032;-80
2023/01/25 10:02:39;;;;;;;12.43;7.68;;;;;;;5.37;51.30;100983.06;5094598;28;20480;-79
2023/01/25 10:05:15;;;;;;;8.37;6.33;;;;;;;4.84;51.52;100883.91;5092656;28;20119;-79
2023/01/25 10:07:59;;;;;;;10.43;6.90;;;;;;;5.32;51.16;100964.22;5092213;28;20064;-79
2023/01/25 10:10:40;;;;;;;11.95;8.55;;;;;;;5.04;50.93;100912.13;5101076;28;20122;-79
2023/01/25 10:13:15;;;;;;;16.48;9.05;;;;;;;5.29;51.18;100937.41;5074080;28;20028;-79
2023/01/25 10:15:51;;;;;;;15.27;8.60;;;;;;;5.52;51.16;100951.47;5074191;28;20036;-79
2023/01/25 10:18:33;;;;;;;11.20;8.10;;;;;;;5.21;51.41;100885.59;5073503;28;20035;-79
2023/01/25 10:21:04;;;;;;;8.93;7.15;;;;;;;4.83;51.44;100835.97;5092188;28;20060;-79
2023/01/25 10:23:42;;;;;;;8.60;6.27;;;;;;;5.59;51.38;100939.59;5092831;28;20032;-79
2023/01/25 10:26:31;;;;;;;11.23;7.53;;;;;;;5.57;50.84;100926.59;5093033;28;20282;-79
2023/01/25 10:29:01;;;;;;;13.20;8.05;;;;;;;5.69;51.32;100932.72;5092733;28;20032;-79
2023/01/25 10:31:33;;;;;;;10.77;7.20;;;;;;;5.71;51.05;100931.66;5090854;28;20499;-79
2023/01/25 10:34:01;;;;;;;13.75;8.35;;;;;;;5.41;51.52;100884.16;5089694;28;20028;-79
2023/01/25 10:36:29;;;;;;;16.05;9.73;;;;;;;5.65;51.16;100919.00;5089114;28;20041;-79
2023/01/25 10:39:00;;;;;;;11.20;9.20;;;;;;;5.20;51.67;100851.63;5086258;28;20028;-79
2023/01/25 10:41:34;;;;;;;9.35;6.60;;;;;;;5.63;51.40;100914.84;5091265;28;20508;-80
2023/01/25 10:46:49;;;;;;;9.35;6.53;;;;;;;4.89;51.49;100775.34;5081712;28;20084;-79
2023/01/25 10:49:24;;;;;;;8.50;4.95;;;;;;;5.68;51.17;100912.72;5089684;28;20574;-79
2023/01/25 10:51:49;;;;;;;9.30;6.68;;;;;;;5.70;51.03;100905.56;5093153;28;20027;-79
2023/01/25 10:54:15;;;;;;;9.65;6.60;;;;;;;5.22;51.12;100848.00;5092872;28;20497;-79
2023/01/25 10:56:44;;;;;;;10.73;7.63;;;;;;;5.44;51.26;100862.97;5092817;28;20043;-79
2023/01/25 10:59:15;;;;;;;10.33;8.30;;;;;;;5.69;51.16;100891.63;5093315;28;20036;-79
2023/01/25 11:01:41;;;;;;;14.02;8.55;;;;;;;5.06;51.18;100788.03;5093276;28;20035;-80
2023/01/25 11:04:34;;;;;;;11.77;6.90;;;;;;;5.70;50.27;100885.44;5090714;28;20028;-80
2023/01/25 11:07:03;;;;;;;11.27;7.97;;;;;;;5.72;50.84;100875.69;5093069;28;20530;-79
2023/01/25 11:09:32;;;;;;;10.02;6.22;;;;;;;5.04;50.98;100766.38;5092715;28;20032;-79
2023/01/25 11:12:00;;;;;;;11.87;6.70;;;;;;;5.28;51.14;100818.75;5071721;28;20029;-79
2023/01/25 11:14:28;;;;;;;7.53;5.83;;;;;;;4.91;50.70;100742.03;5072859;28;20033;-80
2023/01/25 11:16:55;;;;;;;9.07;5.78;;;;;;;5.69;50.73;100886.41;5090518;28;20389;-79
2023/01/25 11:19:32;;;;;;;9.00;6.73;;;;;;;5.69;50.17;100875.91;5091024;28;20040;-79
2023/01/25 11:21:59;;;;;;;12.00;7.68;;;;;;;5.30;51.07;100822.06;5092124;28;20032;-80
2023/01/25 11:24:35;;;;;;;9.50;6.83;;;;;;;5.48;50.79;100843.44;5092621;28;20556;-80
2023/01/25 11:27:20;;;;;;;10.90;6.83;;;;;;;5.61;50.45;100861.72;5087832;28;20045;-79
2023/01/25 11:30:04;;;;;;;13.87;9.70;;;;;;;5.62;50.18;100864.22;5077033;28;20025;-79
2023/01/25 11:32:30;;;;;;;10.43;6.80;;;;;;;5.58;50.85;100852.31;5073497;28;20034;-79
2023/01/25 11:34:56;;;;;;;10.75;6.55;;;;;;;5.48;51.19;100840.84;5090936;28;20538;-79
2023/01/25 11:37:50;;;;;;;8.65;6.85;;;;;;;5.59;50.57;100847.91;5091576;28;20103;-79